sensor_id;sensor_type;location;lat;lon;timestamp;P1;durP1;ratioP1;P2;durP2;ratioP2
5616;SDS011;2830;50.656;7.568;2023-08-07T00:00:18;6.93;;;3.10;;
5616;SDS011;2830;50.656;7.568;2023-08-07T00:02:45;16.03;;;5.30;;
5616;SDS011;2830;50.656;7.568;2023-08-07T00:05:12;15.53;;;3.93;;
5616;SDS011;2830;50.656;7.568;2023-08-07T00:07:38;13.50;;;3.97;;
5616;SDS011;2830;50.656;7.568;2023-08-07T00:10:06;9.87;;;4.03;;
5616;SDS011;2830;50.656;7.568;2023-08-07T00:12:33;12.70;;;3.70;;
5616;SDS011;2830;50.656;7.568;2023-08-07T00:15:00;9.83;;;2.93;;
5616;SDS011;2830;50.656;7.568;2023-08-07T00:17:27;21.20;;;4.90;;
5616;SDS011;2830;50.656;7.568;2023-08-07T00:19:54;16.83;;;4.20;;
5616;SDS011;2830;50.656;7.568;2023-08-07T00:22:20;11.47;;;3.90;;
5616;SDS011;2830;50.656;7.568;2023-08-07T00:24:47;15.50;;;3.30;;
5616;SDS011;2830;50.656;7.568;2023-08-07T00:27:14;14.70;;;4.40;;
5616;SDS011;2830;50.656;7.568;2023-08-07T00:29:41;10.30;;;3.30;;
5616;SDS011;2830;50.656;7.568;2023-08-07T00:32:07;10.43;;;4.10;;
5616;SDS011;2830;50.656;7.568;2023-08-07T00:34:34;16.30;;;3.43;;
5616;SDS011;2830;50.656;7.568;2023-08-07T00:37:01;15.90;;;3.10;;
5616;SDS011;2830;50.656;7.568;2023-08-07T00:39:28;17.03;;;4.50;;
5616;SDS011;2830;50.656;7.568;2023-08-07T00:41:55;17.00;;;4.67;;
5616;SDS011;2830;50.656;7.568;2023-08-07T00:44:21;8.70;;;3.50;;
5616;SDS011;2830;50.656;7.568;2023-08-07T00:46:49;10.13;;;3.80;;
5616;SDS011;2830;50.656;7.568;2023-08-07T00:49:16;10.43;;;3.10;;
5616;SDS011;2830;50.656;7.568;2023-08-07T00:51:45;10.37;;;3.30;;
5616;SDS011;2830;50.656;7.568;2023-08-07T00:54:12;15.77;;;3.60;;
5616;SDS011;2830;50.656;7.568;2023-08-07T00:56:41;16.13;;;3.90;;
5616;SDS011;2830;50.656;7.568;2023-08-07T00:59:08;15.20;;;3.20;;
5616;SDS011;2830;50.656;7.568;2023-08-07T01:01:36;11.87;;;3.97;;
5616;SDS011;2830;50.656;7.568;2023-08-07T01:04:03;8.47;;;3.47;;
5616;SDS011;2830;50.656;7.568;2023-08-07T01:06:30;6.67;;;3.20;;
5616;SDS011;2830;50.656;7.568;2023-08-07T01:08:56;15.40;;;3.50;;
5616;SDS011;2830;50.656;7.568;2023-08-07T01:11:27;10.47;;;2.87;;
5616;SDS011;2830;50.656;7.568;2023-08-07T01:17:13;7.70;;;3.73;;
5616;SDS011;2830;50.656;7.568;2023-08-07T01:19:41;4.63;;;2.80;;
5616;SDS011;2830;50.656;7.568;2023-08-07T01:22:09;7.93;;;3.73;;
5616;SDS011;2830;50.656;7.568;2023-08-07T01:24:44;8.90;;;4.10;;
5616;SDS011;2830;50.656;7.568;2023-08-07T01:30:09;13.77;;;3.00;;
5616;SDS011;2830;50.656;7.568;2023-08-07T01:32:47;6.27;;;2.93;;
5616;SDS011;2830;50.656;7.568;2023-08-07T01:35:29;9.23;;;3.50;;
5616;SDS011;2830;50.656;7.568;2023-08-07T01:37:59;11.90;;;3.53;;
5616;SDS011;2830;50.656;7.568;2023-08-07T01:40:27;9.30;;;3.17;;
5616;SDS011;2830;50.656;7.568;2023-08-07T01:42:54;9.37;;;3.70;;
5616;SDS011;2830;50.656;7.568;2023-08-07T01:45:22;9.17;;;3.83;;
5616;SDS011;2830;50.656;7.568;2023-08-07T01:47:53;11.67;;;3.20;;
5616;SDS011;2830;50.656;7.568;2023-08-07T01:50:21;8.43;;;3.40;;
5616;SDS011;2830;50.656;7.568;2023-08-07T01:52:49;9.33;;;3.50;;
5616;SDS011;2830;50.656;7.568;2023-08-07T01:55:17;9.70;;;3.40;;
5616;SDS011;2830;50.656;7.568;2023-08-07T01:57:45;11.17;;;3.10;;
5616;SDS011;2830;50.656;7.568;2023-08-07T02:00:12;7.80;;;4.00;;
5616;SDS011;2830;50.656;7.568;2023-08-07T02:02:39;15.43;;;4.10;;
5616;SDS011;2830;50.656;7.568;2023-08-07T02:05:05;12.27;;;4.10;;
5616;SDS011;2830;50.656;7.568;2023-08-07T02:07:32;14.67;;;3.60;;
5616;SDS011;2830;50.656;7.568;2023-08-07T02:09:59;15.20;;;4.70;;
5616;SDS011;2830;50.656;7.568;2023-08-07T02:12:26;10.13;;;4.20;;
5616;SDS011;2830;50.656;7.568;2023-08-07T02:14:53;15.07;;;4.10;;
5616;SDS011;2830;50.656;7.568;2023-08-07T02:17:20;18.80;;;4.70;;
5616;SDS011;2830;50.656;7.568;2023-08-07T02:19:48;15.23;;;3.90;;
5616;SDS011;2830;50.656;7.568;2023-08-07T02:22:15;11.70;;;4.70;;
5616;SDS011;2830;50.656;7.568;2023-08-07T02:24:42;12.50;;;4.13;;
5616;SDS011;2830;50.656;7.568;2023-08-07T02:27:09;11.10;;;4.50;;
5616;SDS011;2830;50.656;7.568;2023-08-07T02:29:36;13.40;;;3.53;;
5616;SDS011;2830;50.656;7.568;2023-08-07T02:32:03;14.90;;;4.47;;
5616;SDS011;2830;50.656;7.568;2023-08-07T02:34:30;12.53;;;3.83;;
5616;SDS011;2830;50.656;7.568;2023-08-07T02:36:58;15.93;;;4.00;;
5616;SDS011;2830;50.656;7.568;2023-08-07T02:39:25;9.80;;;3.97;;
5616;SDS011;2830;50.656;7.568;2023-08-07T02:41:52;18.70;;;4.13;;
5616;SDS011;2830;50.656;7.568;2023-08-07T02:44:18;16.57;;;5.43;;
5616;SDS011;2830;50.656;7.568;2023-08-07T02:46:46;13.20;;;5.10;;
5616;SDS011;2830;50.656;7.568;2023-08-07T02:49:13;13.73;;;3.90;;
5616;SDS011;2830;50.656;7.568;2023-08-07T02:51:39;14.27;;;4.73;;
5616;SDS011;2830;50.656;7.568;2023-08-07T02:54:06;11.60;;;3.50;;
5616;SDS011;2830;50.656;7.568;2023-08-07T02:56:33;13.33;;;4.80;;
5616;SDS011;2830;50.656;7.568;2023-08-07T02:59:00;14.93;;;4.57;;
5616;SDS011;2830;50.656;7.568;2023-08-07T03:01:28;26.57;;;4.67;;
5616;SDS011;2830;50.656;7.568;2023-08-07T03:03:55;11.03;;;4.00;;
5616;SDS011;2830;50.656;7.568;2023-08-07T03:06:22;8.67;;;3.70;;
5616;SDS011;2830;50.656;7.568;2023-08-07T03:08:49;14.27;;;4.23;;
5616;SDS011;2830;50.656;7.568;2023-08-07T03:11:16;16.83;;;4.07;;
5616;SDS011;2830;50.656;7.568;2023-08-07T03:13:42;9.97;;;3.87;;
5616;SDS011;2830;50.656;7.568;2023-08-07T03:16:10;16.77;;;4.63;;
5616;SDS011;2830;50.656;7.568;2023-08-07T03:18:37;9.20;;;3.93;;
5616;SDS011;2830;50.656;7.568;2023-08-07T03:21:04;9.83;;;4.40;;
5616;SDS011;2830;50.656;7.568;2023-08-07T03:23:30;15.77;;;4.43;;
5616;SDS011;2830;50.656;7.568;2023-08-07T03:26:07;27.77;;;4.93;;
5616;SDS011;2830;50.656;7.568;2023-08-07T03:28:38;9.83;;;3.90;;
5616;SDS011;2830;50.656;7.568;2023-08-07T03:31:05;11.43;;;4.30;;
5616;SDS011;2830;50.656;7.568;2023-08-07T03:33:32;13.13;;;4.50;;
5616;SDS011;2830;50.656;7.568;2023-08-07T03:35:59;12.47;;;4.40;;
5616;SDS011;2830;50.656;7.568;2023-08-07T03:38:26;6.13;;;3.30;;
5616;SDS011;2830;50.656;7.568;2023-08-07T03:40:53;11.60;;;3.83;;
5616;SDS011;2830;50.656;7.568;2023-08-07T03:43:19;7.40;;;3.57;;
5616;SDS011;2830;50.656;7.568;2023-08-07T03:45:46;10.83;;;4.10;;
5616;SDS011;2830;50.656;7.568;2023-08-07T03:48:13;8.77;;;4.07;;
5616;SDS011;2830;50.656;7.568;2023-08-07T03:50:40;12.23;;;3.63;;
5616;SDS011;2830;50.656;7.568;2023-08-07T03:53:06;12.33;;;3.50;;
5616;SDS011;2830;50.656;7.568;2023-08-07T03:55:34;11.20;;;3.97;;
5616;SDS011;2830;50.656;7.568;2023-08-07T03:58:01;8.80;;;3.87;;
5616;SDS011;2830;50.656;7.568;2023-08-07T04:00:28;6.33;;;3.13;;
5616;SDS011;2830;50.656;7.568;2023-08-07T04:02:55;9.57;;;3.20;;
5616;SDS011;2830;50.656;7.568;2023-08-07T04:05:22;7.70;;;3.80;;
5616;SDS011;2830;50.656;7.568;2023-08-07T04:07:48;19.10;;;4.97;;
5616;SDS011;2830;50.656;7.568;2023-08-07T04:10:15;8.50;;;3.60;;
5616;SDS011;2830;50.656;7.568;2023-08-07T04:12:42;11.50;;;3.87;;
5616;SDS011;2830;50.656;7.568;2023-08-07T04:15:09;8.93;;;3.50;;
5616;SDS011;2830;50.656;7.568;2023-08-07T04:17:36;13.43;;;3.83;;
5616;SDS011;2830;50.656;7.568;2023-08-07T04:20:03;15.30;;;3.73;;
5616;SDS011;2830;50.656;7.568;2023-08-07T04:22:30;12.97;;;3.77;;
5616;SDS011;2830;50.656;7.568;2023-08-07T04:24:57;14.30;;;4.03;;
5616;SDS011;2830;50.656;7.568;2023-08-07T04:27:23;13.13;;;4.70;;
5616;SDS011;2830;50.656;7.568;2023-08-07T04:29:50;11.40;;;3.97;;
5616;SDS011;2830;50.656;7.568;2023-08-07T04:32:17;11.33;;;3.90;;
5616;SDS011;2830;50.656;7.568;2023-08-07T04:34:44;9.43;;;4.50;;
5616;SDS011;2830;50.656;7.568;2023-08-07T04:37:10;13.37;;;3.90;;
5616;SDS011;2830;50.656;7.568;2023-08-07T04:39:37;7.67;;;3.60;;
5616;SDS011;2830;50.656;7.568;2023-08-07T04:42:04;13.10;;;3.80;;
5616;SDS011;2830;50.656;7.568;2023-08-07T04:44:31;9.87;;;3.10;;
5616;SDS011;2830;50.656;7.568;2023-08-07T04:46:57;10.10;;;3.60;;
5616;SDS011;2830;50.656;7.568;2023-08-07T04:49:24;5.27;;;3.30;;
5616;SDS011;2830;50.656;7.568;2023-08-07T04:51:51;7.03;;;3.57;;
5616;SDS011;2830;50.656;7.568;2023-08-07T04:54:18;5.70;;;2.80;;
5616;SDS011;2830;50.656;7.568;2023-08-07T04:56:44;5.47;;;2.33;;
5616;SDS011;2830;50.656;7.568;2023-08-07T04:59:11;5.33;;;2.77;;
5616;SDS011;2830;50.656;7.568;2023-08-07T05:01:38;4.67;;;2.63;;
5616;SDS011;2830;50.656;7.568;2023-08-07T05:04:05;7.03;;;1.93;;
5616;SDS011;2830;50.656;7.568;2023-08-07T05:06:32;3.40;;;2.27;;
5616;SDS011;2830;50.656;7.568;2023-08-07T05:08:58;6.70;;;2.70;;
5616;SDS011;2830;50.656;7.568;2023-08-07T05:11:25;8.17;;;2.70;;
5616;SDS011;2830;50.656;7.568;2023-08-07T05:13:52;5.33;;;2.13;;
5616;SDS011;2830;50.656;7.568;2023-08-07T05:16:18;5.77;;;2.30;;
5616;SDS011;2830;50.656;7.568;2023-08-07T05:18:45;6.23;;;2.87;;
5616;SDS011;2830;50.656;7.568;2023-08-07T05:21:16;10.47;;;3.17;;
5616;SDS011;2830;50.656;7.568;2023-08-07T05:23:42;9.77;;;3.23;;
5616;SDS011;2830;50.656;7.568;2023-08-07T05:26:09;6.50;;;2.77;;
5616;SDS011;2830;50.656;7.568;2023-08-07T05:28:36;13.70;;;3.90;;
5616;SDS011;2830;50.656;7.568;2023-08-07T05:31:03;13.50;;;3.23;;
5616;SDS011;2830;50.656;7.568;2023-08-07T05:33:30;6.93;;;3.40;;
5616;SDS011;2830;50.656;7.568;2023-08-07T05:35:56;9.13;;;3.57;;
5616;SDS011;2830;50.656;7.568;2023-08-07T05:38:23;10.23;;;3.77;;
5616;SDS011;2830;50.656;7.568;2023-08-07T05:40:50;14.60;;;4.50;;
5616;SDS011;2830;50.656;7.568;2023-08-07T05:43:17;13.37;;;4.50;;
5616;SDS011;2830;50.656;7.568;2023-08-07T05:45:43;8.50;;;3.87;;
5616;SDS011;2830;50.656;7.568;2023-08-07T05:48:12;13.07;;;4.63;;
5616;SDS011;2830;50.656;7.568;2023-08-07T05:50:39;9.83;;;3.77;;
5616;SDS011;2830;50.656;7.568;2023-08-07T05:53:05;14.83;;;4.60;;
5616;SDS011;2830;50.656;7.568;2023-08-07T05:55:32;6.60;;;4.17;;
5616;SDS011;2830;50.656;7.568;2023-08-07T05:57:59;15.93;;;4.70;;
5616;SDS011;2830;50.656;7.568;2023-08-07T06:00:26;16.77;;;4.40;;
5616;SDS011;2830;50.656;7.568;2023-08-07T06:02:54;10.17;;;3.73;;
5616;SDS011;2830;50.656;7.568;2023-08-07T06:05:21;10.60;;;4.50;;
5616;SDS011;2830;50.656;7.568;2023-08-07T06:07:47;12.43;;;4.57;;
5616;SDS011;2830;50.656;7.568;2023-08-07T06:10:14;9.87;;;4.40;;
5616;SDS011;2830;50.656;7.568;2023-08-07T06:12:41;13.77;;;3.13;;
5616;SDS011;2830;50.656;7.568;2023-08-07T06:15:08;7.90;;;3.30;;
5616;SDS011;2830;50.656;7.568;2023-08-07T06:17:35;16.10;;;3.63;;
5616;SDS011;2830;50.656;7.568;2023-08-07T06:20:02;12.70;;;3.93;;
5616;SDS011;2830;50.656;7.568;2023-08-07T06:22:31;18.73;;;3.90;;
5616;SDS011;2830;50.656;7.568;2023-08-07T06:24:58;13.13;;;4.67;;
5616;SDS011;2830;50.656;7.568;2023-08-07T06:27:25;8.27;;;3.63;;
5616;SDS011;2830;50.656;7.568;2023-08-07T06:29:52;13.50;;;3.97;;
5616;SDS011;2830;50.656;7.568;2023-08-07T06:32:18;9.33;;;3.27;;
5616;SDS011;2830;50.656;7.568;2023-08-07T06:34:45;19.10;;;4.47;;
5616;SDS011;2830;50.656;7.568;2023-08-07T06:37:12;10.90;;;3.77;;
5616;SDS011;2830;50.656;7.568;2023-08-07T06:39:39;19.90;;;3.80;;
5616;SDS011;2830;50.656;7.568;2023-08-07T06:42:07;6.37;;;3.47;;
5616;SDS011;2830;50.656;7.568;2023-08-07T06:44:34;13.07;;;4.90;;
5616;SDS011;2830;50.656;7.568;2023-08-07T06:47:01;9.33;;;3.53;;
5616;SDS011;2830;50.656;7.568;2023-08-07T06:49:27;13.80;;;4.10;;
5616;SDS011;2830;50.656;7.568;2023-08-07T06:51:55;11.20;;;3.33;;
5616;SDS011;2830;50.656;7.568;2023-08-07T06:54:22;9.83;;;4.93;;
5616;SDS011;2830;50.656;7.568;2023-08-07T06:56:48;12.93;;;3.87;;
5616;SDS011;2830;50.656;7.568;2023-08-07T06:59:15;9.27;;;3.37;;
5616;SDS011;2830;50.656;7.568;2023-08-07T07:01:42;12.10;;;3.30;;
5616;SDS011;2830;50.656;7.568;2023-08-07T07:04:08;11.90;;;3.83;;
5616;SDS011;2830;50.656;7.568;2023-08-07T07:06:36;6.30;;;3.60;;
5616;SDS011;2830;50.656;7.568;2023-08-07T07:09:03;5.37;;;2.73;;
5616;SDS011;2830;50.656;7.568;2023-08-07T07:11:30;8.80;;;3.97;;
5616;SDS011;2830;50.656;7.568;2023-08-07T07:13:57;8.30;;;3.33;;
5616;SDS011;2830;50.656;7.568;2023-08-07T07:16:24;11.80;;;2.83;;
5616;SDS011;2830;50.656;7.568;2023-08-07T07:18:54;7.90;;;2.90;;
5616;SDS011;2830;50.656;7.568;2023-08-07T07:21:22;8.33;;;2.80;;
5616;SDS011;2830;50.656;7.568;2023-08-07T07:23:49;8.00;;;3.03;;
5616;SDS011;2830;50.656;7.568;2023-08-07T07:26:15;12.97;;;3.90;;
5616;SDS011;2830;50.656;7.568;2023-08-07T07:28:42;10.40;;;3.30;;
5616;SDS011;2830;50.656;7.568;2023-08-07T07:31:09;5.60;;;2.50;;
5616;SDS011;2830;50.656;7.568;2023-08-07T07:33:38;8.63;;;2.57;;
5616;SDS011;2830;50.656;7.568;2023-08-07T07:36:06;8.23;;;3.93;;
5616;SDS011;2830;50.656;7.568;2023-08-07T07:38:33;5.90;;;2.40;;
5616;SDS011;2830;50.656;7.568;2023-08-07T07:41:00;9.70;;;2.80;;
5616;SDS011;2830;50.656;7.568;2023-08-07T07:43:27;5.83;;;2.50;;
5616;SDS011;2830;50.656;7.568;2023-08-07T07:45:54;6.80;;;2.90;;
5616;SDS011;2830;50.656;7.568;2023-08-07T07:48:20;3.77;;;2.23;;
5616;SDS011;2830;50.656;7.568;2023-08-07T07:50:47;7.07;;;2.37;;
5616;SDS011;2830;50.656;7.568;2023-08-07T07:53:14;8.13;;;2.90;;
5616;SDS011;2830;50.656;7.568;2023-08-07T07:55:41;6.70;;;2.20;;
5616;SDS011;2830;50.656;7.568;2023-08-07T07:58:13;3.30;;;2.00;;
5616;SDS011;2830;50.656;7.568;2023-08-07T08:00:39;3.63;;;2.13;;
5616;SDS011;2830;50.656;7.568;2023-08-07T08:03:06;4.80;;;1.83;;
5616;SDS011;2830;50.656;7.568;2023-08-07T08:05:33;5.33;;;2.37;;
5616;SDS011;2830;50.656;7.568;2023-08-07T08:08:00;3.93;;;1.73;;
5616;SDS011;2830;50.656;7.568;2023-08-07T08:10:27;3.30;;;1.80;;
5616;SDS011;2830;50.656;7.568;2023-08-07T08:12:54;5.40;;;2.33;;
5616;SDS011;2830;50.656;7.568;2023-08-07T08:15:21;4.33;;;2.10;;
5616;SDS011;2830;50.656;7.568;2023-08-07T08:17:48;3.93;;;2.10;;
5616;SDS011;2830;50.656;7.568;2023-08-07T08:20:15;8.63;;;2.07;;
5616;SDS011;2830;50.656;7.568;2023-08-07T08:22:44;10.27;;;2.40;;
5616;SDS011;2830;50.656;7.568;2023-08-07T08:25:11;4.50;;;2.60;;
5616;SDS011;2830;50.656;7.568;2023-08-07T08:27:39;4.60;;;2.20;;
5616;SDS011;2830;50.656;7.568;2023-08-07T08:30:06;3.97;;;1.90;;
5616;SDS011;2830;50.656;7.568;2023-08-07T08:32:34;12.50;;;2.60;;
5616;SDS011;2830;50.656;7.568;2023-08-07T08:35:01;5.47;;;2.30;;
5616;SDS011;2830;50.656;7.568;2023-08-07T08:37:28;7.20;;;2.27;;
5616;SDS011;2830;50.656;7.568;2023-08-07T08:39:55;13.60;;;2.83;;
5616;SDS011;2830;50.656;7.568;2023-08-07T08:42:22;9.23;;;2.70;;
5616;SDS011;2830;50.656;7.568;2023-08-07T08:44:52;11.90;;;2.63;;
5616;SDS011;2830;50.656;7.568;2023-08-07T08:47:21;5.53;;;3.30;;
5616;SDS011;2830;50.656;7.568;2023-08-07T08:49:49;11.77;;;3.13;;
5616;SDS011;2830;50.656;7.568;2023-08-07T08:52:21;12.00;;;3.13;;
5616;SDS011;2830;50.656;7.568;2023-08-07T08:54:47;11.37;;;2.80;;
5616;SDS011;2830;50.656;7.568;2023-08-07T08:57:14;6.70;;;3.30;;
5616;SDS011;2830;50.656;7.568;2023-08-07T08:59:41;8.10;;;2.80;;
5616;SDS011;2830;50.656;7.568;2023-08-07T09:02:08;11.43;;;3.67;;
5616;SDS011;2830;50.656;7.568;2023-08-07T09:04:36;13.17;;;3.43;;
5616;SDS011;2830;50.656;7.568;2023-08-07T09:07:03;11.23;;;2.90;;
5616;SDS011;2830;50.656;7.568;2023-08-07T09:09:30;10.23;;;2.93;;
5616;SDS011;2830;50.656;7.568;2023-08-07T09:11:57;8.07;;;3.30;;
5616;SDS011;2830;50.656;7.568;2023-08-07T09:14:27;10.57;;;3.70;;
5616;SDS011;2830;50.656;7.568;2023-08-07T09:16:59;12.80;;;3.57;;
5616;SDS011;2830;50.656;7.568;2023-08-07T09:19:27;14.00;;;3.87;;
5616;SDS011;2830;50.656;7.568;2023-08-07T09:21:54;9.57;;;3.47;;
5616;SDS011;2830;50.656;7.568;2023-08-07T09:24:21;10.00;;;3.23;;
5616;SDS011;2830;50.656;7.568;2023-08-07T09:26:50;6.90;;;2.80;;
5616;SDS011;2830;50.656;7.568;2023-08-07T09:29:18;7.80;;;3.40;;
5616;SDS011;2830;50.656;7.568;2023-08-07T09:31:46;12.97;;;3.13;;
5616;SDS011;2830;50.656;7.568;2023-08-07T09:34:13;6.40;;;3.33;;
5616;SDS011;2830;50.656;7.568;2023-08-07T09:36:42;12.90;;;3.77;;
5616;SDS011;2830;50.656;7.568;2023-08-07T09:39:09;7.20;;;3.23;;
5616;SDS011;2830;50.656;7.568;2023-08-07T09:41:36;7.73;;;3.07;;
5616;SDS011;2830;50.656;7.568;2023-08-07T09:44:07;5.80;;;3.27;;
5616;SDS011;2830;50.656;7.568;2023-08-07T09:46:43;11.80;;;3.30;;
5616;SDS011;2830;50.656;7.568;2023-08-07T09:49:10;7.13;;;3.07;;
5616;SDS011;2830;50.656;7.568;2023-08-07T09:51:47;14.47;;;4.00;;
5616;SDS011;2830;50.656;7.568;2023-08-07T09:54:16;7.27;;;3.27;;
5616;SDS011;2830;50.656;7.568;2023-08-07T09:56:43;20.20;;;5.20;;
5616;SDS011;2830;50.656;7.568;2023-08-07T09:59:12;8.87;;;3.57;;
5616;SDS011;2830;50.656;7.568;2023-08-07T10:01:39;20.37;;;3.43;;
5616;SDS011;2830;50.656;7.568;2023-08-07T10:04:09;6.43;;;2.93;;
5616;SDS011;2830;50.656;7.568;2023-08-07T10:06:42;10.03;;;3.63;;
5616;SDS011;2830;50.656;7.568;2023-08-07T10:09:09;16.00;;;4.20;;
5616;SDS011;2830;50.656;7.568;2023-08-07T10:11:37;9.60;;;3.07;;
5616;SDS011;2830;50.656;7.568;2023-08-07T10:14:05;8.33;;;3.10;;
5616;SDS011;2830;50.656;7.568;2023-08-07T10:16:32;6.53;;;3.00;;
5616;SDS011;2830;50.656;7.568;2023-08-07T10:19:04;8.77;;;3.70;;
5616;SDS011;2830;50.656;7.568;2023-08-07T10:21:33;7.63;;;3.43;;
5616;SDS011;2830;50.656;7.568;2023-08-07T10:24:03;10.17;;;4.10;;
5616;SDS011;2830;50.656;7.568;2023-08-07T10:26:34;6.30;;;3.57;;
5616;SDS011;2830;50.656;7.568;2023-08-07T10:29:02;7.00;;;3.53;;
5616;SDS011;2830;50.656;7.568;2023-08-07T10:31:33;9.97;;;3.50;;
5616;SDS011;2830;50.656;7.568;2023-08-07T10:34:01;12.80;;;3.70;;
5616;SDS011;2830;50.656;7.568;2023-08-07T10:36:32;5.10;;;4.00;;
5616;SDS011;2830;50.656;7.568;2023-08-07T10:39:07;13.40;;;3.30;;
5616;SDS011;2830;50.656;7.568;2023-08-07T10:41:53;10.63;;;4.37;;
5616;SDS011;2830;50.656;7.568;2023-08-07T10:44:24;11.27;;;3.77;;
5616;SDS011;2830;50.656;7.568;2023-08-07T10:52:10;7.70;;;2.60;;
5616;SDS011;2830;50.656;7.568;2023-08-07T10:54:39;11.70;;;2.90;;
5616;SDS011;2830;50.656;7.568;2023-08-07T10:57:14;7.53;;;2.83;;
5616;SDS011;2830;50.656;7.568;2023-08-07T10:59:49;5.83;;;3.10;;
5616;SDS011;2830;50.656;7.568;2023-08-07T11:02:25;4.30;;;2.33;;
5616;SDS011;2830;50.656;7.568;2023-08-07T11:04:55;4.60;;;2.90;;
5616;SDS011;2830;50.656;7.568;2023-08-07T11:07:24;10.63;;;3.20;;
5616;SDS011;2830;50.656;7.568;2023-08-07T11:09:55;6.37;;;2.40;;
5616;SDS011;2830;50.656;7.568;2023-08-07T11:12:26;11.03;;;6.17;;
5616;SDS011;2830;50.656;7.568;2023-08-07T11:14:54;5.60;;;2.53;;
5616;SDS011;2830;50.656;7.568;2023-08-07T11:17:26;8.03;;;2.77;;
5616;SDS011;2830;50.656;7.568;2023-08-07T11:19:54;4.30;;;2.10;;
5616;SDS011;2830;50.656;7.568;2023-08-07T11:22:22;6.40;;;1.70;;
5616;SDS011;2830;50.656;7.568;2023-08-07T11:24:49;4.90;;;2.13;;
5616;SDS011;2830;50.656;7.568;2023-08-07T11:27:17;5.30;;;2.00;;
5616;SDS011;2830;50.656;7.568;2023-08-07T11:29:47;7.70;;;2.77;;
5616;SDS011;2830;50.656;7.568;2023-08-07T11:32:15;6.93;;;1.80;;
5616;SDS011;2830;50.656;7.568;2023-08-07T11:34:46;10.80;;;2.73;;
5616;SDS011;2830;50.656;7.568;2023-08-07T11:37:17;8.30;;;3.03;;
5616;SDS011;2830;50.656;7.568;2023-08-07T11:39:44;8.73;;;2.50;;
5616;SDS011;2830;50.656;7.568;2023-08-07T11:42:11;9.60;;;2.50;;
5616;SDS011;2830;50.656;7.568;2023-08-07T11:44:37;3.40;;;1.63;;
5616;SDS011;2830;50.656;7.568;2023-08-07T11:47:04;6.00;;;1.63;;
5616;SDS011;2830;50.656;7.568;2023-08-07T11:49:31;4.53;;;1.90;;
5616;SDS011;2830;50.656;7.568;2023-08-07T11:51:58;4.20;;;2.10;;
5616;SDS011;2830;50.656;7.568;2023-08-07T11:54:25;5.00;;;1.80;;
5616;SDS011;2830;50.656;7.568;2023-08-07T11:56:52;12.93;;;2.93;;
5616;SDS011;2830;50.656;7.568;2023-08-07T11:59:19;5.47;;;2.10;;
5616;SDS011;2830;50.656;7.568;2023-08-07T12:01:46;4.20;;;1.80;;
5616;SDS011;2830;50.656;7.568;2023-08-07T12:04:13;12.80;;;3.03;;
5616;SDS011;2830;50.656;7.568;2023-08-07T12:06:51;6.80;;;2.30;;
5616;SDS011;2830;50.656;7.568;2023-08-07T12:09:20;8.77;;;2.43;;
5616;SDS011;2830;50.656;7.568;2023-08-07T12:11:47;5.37;;;2.03;;
5616;SDS011;2830;50.656;7.568;2023-08-07T12:14:14;4.60;;;1.87;;
5616;SDS011;2830;50.656;7.568;2023-08-07T12:16:46;8.23;;;2.40;;
5616;SDS011;2830;50.656;7.568;2023-08-07T12:19:14;7.90;;;2.13;;
5616;SDS011;2830;50.656;7.568;2023-08-07T12:21:42;4.60;;;2.10;;
5616;SDS011;2830;50.656;7.568;2023-08-07T12:24:09;12.20;;;2.60;;
5616;SDS011;2830;50.656;7.568;2023-08-07T12:26:36;7.20;;;2.00;;
5616;SDS011;2830;50.656;7.568;2023-08-07T12:29:03;6.40;;;2.27;;
5616;SDS011;2830;50.656;7.568;2023-08-07T12:31:29;5.90;;;2.30;;
5616;SDS011;2830;50.656;7.568;2023-08-07T12:33:56;6.63;;;1.87;;
5616;SDS011;2830;50.656;7.568;2023-08-07T12:36:43;8.13;;;2.53;;
5616;SDS011;2830;50.656;7.568;2023-08-07T12:39:10;6.27;;;2.73;;
5616;SDS011;2830;50.656;7.568;2023-08-07T12:41:36;4.80;;;2.10;;
5616;SDS011;2830;50.656;7.568;2023-08-07T12:44:06;5.10;;;1.77;;
5616;SDS011;2830;50.656;7.568;2023-08-07T12:46:33;8.83;;;2.00;;
5616;SDS011;2830;50.656;7.568;2023-08-07T12:49:03;7.07;;;2.50;;
5616;SDS011;2830;50.656;7.568;2023-08-07T12:51:30;4.83;;;1.60;;
5616;SDS011;2830;50.656;7.568;2023-08-07T12:53:56;5.37;;;2.00;;
5616;SDS011;2830;50.656;7.568;2023-08-07T12:56:23;5.23;;;2.00;;
5616;SDS011;2830;50.656;7.568;2023-08-07T12:58:50;5.43;;;2.10;;
5616;SDS011;2830;50.656;7.568;2023-08-07T13:01:16;8.17;;;1.70;;
5616;SDS011;2830;50.656;7.568;2023-08-07T13:03:43;5.77;;;1.83;;
5616;SDS011;2830;50.656;7.568;2023-08-07T13:06:10;7.50;;;2.27;;
5616;SDS011;2830;50.656;7.568;2023-08-07T13:08:38;4.93;;;2.23;;
5616;SDS011;2830;50.656;7.568;2023-08-07T13:11:04;4.20;;;1.87;;
5616;SDS011;2830;50.656;7.568;2023-08-07T13:13:31;8.00;;;2.10;;
5616;SDS011;2830;50.656;7.568;2023-08-07T13:15:58;6.30;;;2.23;;
5616;SDS011;2830;50.656;7.568;2023-08-07T13:18:24;8.10;;;2.63;;
5616;SDS011;2830;50.656;7.568;2023-08-07T13:20:51;9.23;;;2.30;;
5616;SDS011;2830;50.656;7.568;2023-08-07T13:23:18;7.63;;;2.13;;
5616;SDS011;2830;50.656;7.568;2023-08-07T13:25:44;4.60;;;2.17;;
5616;SDS011;2830;50.656;7.568;2023-08-07T13:28:11;8.00;;;2.10;;
5616;SDS011;2830;50.656;7.568;2023-08-07T13:30:38;5.37;;;1.80;;
5616;SDS011;2830;50.656;7.568;2023-08-07T13:33:04;6.50;;;2.10;;
5616;SDS011;2830;50.656;7.568;2023-08-07T13:35:32;9.37;;;1.93;;
5616;SDS011;2830;50.656;7.568;2023-08-07T13:38:01;5.30;;;2.10;;
5616;SDS011;2830;50.656;7.568;2023-08-07T13:40:31;5.10;;;2.50;;
5616;SDS011;2830;50.656;7.568;2023-08-07T13:42:58;4.67;;;2.00;;
5616;SDS011;2830;50.656;7.568;2023-08-07T13:45:28;5.67;;;1.87;;
5616;SDS011;2830;50.656;7.568;2023-08-07T13:47:54;4.33;;;1.80;;
5616;SDS011;2830;50.656;7.568;2023-08-07T13:50:21;6.33;;;2.17;;
5616;SDS011;2830;50.656;7.568;2023-08-07T13:52:48;9.63;;;2.30;;
5616;SDS011;2830;50.656;7.568;2023-08-07T13:55:33;6.37;;;2.07;;
5616;SDS011;2830;50.656;7.568;2023-08-07T13:58:00;8.00;;;2.80;;
5616;SDS011;2830;50.656;7.568;2023-08-07T14:00:27;10.73;;;2.00;;
5616;SDS011;2830;50.656;7.568;2023-08-07T14:02:54;7.13;;;2.57;;
5616;SDS011;2830;50.656;7.568;2023-08-07T14:05:21;9.33;;;2.60;;
5616;SDS011;2830;50.656;7.568;2023-08-07T14:07:48;5.90;;;2.50;;
5616;SDS011;2830;50.656;7.568;2023-08-07T14:10:14;12.43;;;2.87;;
5616;SDS011;2830;50.656;7.568;2023-08-07T14:12:41;5.07;;;2.30;;
5616;SDS011;2830;50.656;7.568;2023-08-07T14:15:08;8.50;;;2.20;;
5616;SDS011;2830;50.656;7.568;2023-08-07T14:17:35;6.20;;;2.50;;
5616;SDS011;2830;50.656;7.568;2023-08-07T14:20:01;8.30;;;2.43;;
5616;SDS011;2830;50.656;7.568;2023-08-07T14:22:30;14.20;;;2.57;;
5616;SDS011;2830;50.656;7.568;2023-08-07T14:24:58;5.03;;;2.03;;
5616;SDS011;2830;50.656;7.568;2023-08-07T14:27:24;7.60;;;2.70;;
5616;SDS011;2830;50.656;7.568;2023-08-07T14:29:51;4.20;;;2.13;;
5616;SDS011;2830;50.656;7.568;2023-08-07T14:32:18;5.20;;;2.20;;
5616;SDS011;2830;50.656;7.568;2023-08-07T14:34:45;5.83;;;2.37;;
5616;SDS011;2830;50.656;7.568;2023-08-07T14:37:14;5.20;;;2.20;;
5616;SDS011;2830;50.656;7.568;2023-08-07T14:39:40;8.10;;;2.40;;
5616;SDS011;2830;50.656;7.568;2023-08-07T14:42:07;3.60;;;1.80;;
5616;SDS011;2830;50.656;7.568;2023-08-07T14:44:34;7.67;;;2.63;;
5616;SDS011;2830;50.656;7.568;2023-08-07T14:47:00;5.67;;;2.13;;
5616;SDS011;2830;50.656;7.568;2023-08-07T14:49:27;6.80;;;2.70;;
5616;SDS011;2830;50.656;7.568;2023-08-07T14:51:56;7.50;;;2.17;;
5616;SDS011;2830;50.656;7.568;2023-08-07T14:54:23;9.53;;;2.53;;
5616;SDS011;2830;50.656;7.568;2023-08-07T14:56:50;6.07;;;2.20;;
5616;SDS011;2830;50.656;7.568;2023-08-07T14:59:16;12.67;;;3.30;;
5616;SDS011;2830;50.656;7.568;2023-08-07T15:01:43;6.03;;;2.67;;
5616;SDS011;2830;50.656;7.568;2023-08-07T15:04:11;4.50;;;2.80;;
5616;SDS011;2830;50.656;7.568;2023-08-07T15:06:38;8.33;;;3.20;;
5616;SDS011;2830;50.656;7.568;2023-08-07T15:09:05;7.50;;;3.40;;
5616;SDS011;2830;50.656;7.568;2023-08-07T15:11:32;14.40;;;3.17;;
5616;SDS011;2830;50.656;7.568;2023-08-07T15:13:59;9.23;;;2.77;;
5616;SDS011;2830;50.656;7.568;2023-08-07T15:16:25;7.03;;;2.87;;
5616;SDS011;2830;50.656;7.568;2023-08-07T15:18:52;7.20;;;3.07;;
5616;SDS011;2830;50.656;7.568;2023-08-07T15:21:19;6.30;;;2.30;;
5616;SDS011;2830;50.656;7.568;2023-08-07T15:23:46;5.27;;;2.10;;